Terminal Aerodrome Forecast
Issued by NWS Billings, MT

Home | Current Version | Previous Version | Text Only | Print | Product List | Glossary Off
Versions: 1 2 3 4 5 6 7 8 9 10 11 12 13 14 15 16 17 18 19 20 21 22 23 24 25 26

076
FTUS45 KBYZ 262325
TAFMLS
TAF
KMLS 262325Z 2700/2724 31010KT P6SM SCT100
     FM270130 34009KT P6SM VCTS BKN070CB
     FM270500 VRB05KT P6SM FEW070
     FM270900 17008KT P6SM SKC
     FM272000 23010KT P6SM FEW200=

USA.gov is the U.S. government's official web portal to all federal, state and local government web resources and services.